Time;durP1;ratioP1;P1;durP2;ratioP2;P2;SDS_P1;SDS_P2;PMS_P1;PMS_P2;Temp;Humidity;BMP_temperature;BMP_pressure;BME280_temperature;BME280_humidity;BME280_pressure;Samples;Min_cycle;Max_cycle;Signal;HPM_P1;HPM_P2
2021/07/28 00:01:28;;;;;;;11.20;6.30;;;17.50;99.90;;;;;;5035088;28;20486;-82
2021/07/28 00:03:56;;;;;;;10.40;5.90;;;17.50;99.90;;;;;;5035240;28;20461;-82
2021/07/28 00:06:24;;;;;;;12.50;6.40;;;17.50;99.90;;;;;;5034610;28;20836;-82
2021/07/28 00:08:52;;;;;;;10.60;6.00;;;17.40;99.90;;;;;;5033898;28;20465;-82
2021/07/28 00:11:19;;;;;;;13.80;6.77;;;17.50;99.90;;;;;;5036751;28;20448;-83
2021/07/28 00:13:46;;;;;;;11.37;6.60;;;17.40;99.90;;;;;;5035782;28;20463;-82
2021/07/28 00:16:14;;;;;;;11.70;6.63;;;17.50;99.90;;;;;;5036052;28;20470;-83
2021/07/28 00:18:49;;;;;;;12.17;6.40;;;17.40;99.90;;;;;;5024352;28;20454;-82
2021/07/28 00:24:01;;;;;;;11.43;6.40;;;17.40;99.90;;;;;;5019157;28;20557;-82
2021/07/28 00:26:29;;;;;;;12.97;6.80;;;17.40;99.90;;;;;;5018942;28;20461;-83
2021/07/28 00:28:56;;;;;;;13.07;6.30;;;17.40;99.90;;;;;;5033111;28;20550;-82
2021/07/28 00:31:22;;;;;;;10.80;5.77;;;17.40;99.90;;;;;;5042351;28;20452;-82
2021/07/28 00:33:49;;;;;;;12.70;6.87;;;17.40;99.90;;;;;;5039884;28;20457;-82
2021/07/28 00:36:17;;;;;;;13.57;5.73;;;17.40;99.90;;;;;;5039454;28;20465;-83
2021/07/28 00:38:44;;;;;;;11.97;6.00;;;17.40;99.90;;;;;;5028788;28;20521;-82
2021/07/28 00:41:13;;;;;;;11.60;6.57;;;17.50;99.90;;;;;;5024791;28;20498;-84
2021/07/28 00:43:40;;;;;;;12.13;6.40;;;17.50;99.90;;;;;;5043334;28;20506;-83
2021/07/28 00:46:07;;;;;;;10.83;6.23;;;17.40;99.90;;;;;;5043360;28;20533;-82
2021/07/28 00:48:35;;;;;;;12.00;6.53;;;17.50;99.90;;;;;;5043355;28;20455;-82
2021/07/28 00:51:02;;;;;;;12.13;6.50;;;17.50;99.90;;;;;;5044630;28;20827;-83
2021/07/28 00:53:32;;;;;;;11.90;6.13;;;17.60;99.90;;;;;;5044357;28;20472;-82
2021/07/28 00:56:01;;;;;;;11.87;6.17;;;17.60;99.90;;;;;;5049193;28;20839;-82
2021/07/28 00:58:30;;;;;;;12.43;6.00;;;17.60;99.90;;;;;;5034567;28;20501;-81
2021/07/28 01:00:57;;;;;;;11.23;5.67;;;17.60;99.90;;;;;;5022324;28;20514;-82
2021/07/28 01:03:23;;;;;;;13.97;7.87;;;17.60;99.90;;;;;;5022296;28;20545;-82
2021/07/28 01:05:50;;;;;;;12.67;6.47;;;17.60;99.90;;;;;;5021618;28;20449;-82
2021/07/28 01:08:18;;;;;;;11.70;6.03;;;17.60;99.90;;;;;;5028909;28;20455;-81
2021/07/28 01:10:47;;;;;;;18.90;6.47;;;17.60;99.90;;;;;;5043959;28;20813;-81
2021/07/28 01:13:16;;;;;;;13.53;7.13;;;17.70;99.90;;;;;;5038457;28;20476;-82
2021/07/28 01:15:43;;;;;;;11.20;6.23;;;17.70;99.90;;;;;;5037910;28;20470;-83
2021/07/28 01:18:14;;;;;;;10.80;6.30;;;17.60;99.90;;;;;;5031849;28;20450;-82
2021/07/28 01:20:43;;;;;;;12.40;6.57;;;17.60;99.90;;;;;;5018728;28;20489;-83
2021/07/28 01:23:21;;;;;;;15.60;7.27;;;17.60;99.90;;;;;;5023755;28;20479;-82
2021/07/28 01:25:49;;;;;;;11.30;6.80;;;17.60;99.90;;;;;;5021994;28;20510;-82
2021/07/28 01:28:20;;;;;;;11.67;6.30;;;17.60;99.90;;;;;;5031828;28;20451;-81
2021/07/28 01:30:57;;;;;;;11.40;5.87;;;17.60;99.90;;;;;;5044124;28;20843;-82
2021/07/28 01:33:24;;;;;;;11.60;6.40;;;17.60;99.90;;;;;;5045158;28;20474;-83
2021/07/28 01:35:51;;;;;;;11.37;5.93;;;17.70;99.90;;;;;;5045157;28;20455;-81
2021/07/28 01:38:22;;;;;;;12.03;5.97;;;17.70;99.90;;;;;;5037703;28;20522;-81
2021/07/28 01:40:50;;;;;;;12.23;6.33;;;17.60;99.90;;;;;;5025904;28;20584;-82
2021/07/28 01:43:17;;;;;;;12.10;5.87;;;17.60;99.90;;;;;;5023906;28;20534;-83
2021/07/28 01:45:44;;;;;;;10.67;6.37;;;17.70;99.90;;;;;;5023744;28;20459;-82
2021/07/28 01:48:10;;;;;;;10.50;5.20;;;17.70;99.90;;;;;;5025036;28;20521;-81
2021/07/28 01:50:37;;;;;;;11.60;5.73;;;17.70;99.90;;;;;;5039942;28;20457;-82
2021/07/28 01:53:05;;;;;;;10.83;5.87;;;17.60;99.90;;;;;;5025730;28;20538;-82
2021/07/28 01:55:32;;;;;;;11.50;6.70;;;17.60;99.90;;;;;;5024249;28;20526;-83
2021/07/28 01:58:01;;;;;;;12.43;7.40;;;17.60;99.90;;;;;;5027603;28;20470;-83
2021/07/28 02:00:28;;;;;;;13.07;7.03;;;17.50;99.90;;;;;;5042823;28;20494;-83
2021/07/28 02:03:02;;;;;;;13.50;6.47;;;17.50;99.90;;;;;;5042324;28;20466;-82
2021/07/28 02:05:29;;;;;;;10.90;5.93;;;17.50;99.90;;;;;;5044569;28;20552;-82
2021/07/28 02:07:57;;;;;;;11.97;6.07;;;17.60;99.90;;;;;;5039655;28;20460;-81
2021/07/28 02:10:24;;;;;;;12.03;6.40;;;17.60;99.90;;;;;;5022239;28;20490;-82
2021/07/28 02:12:51;;;;;;;14.33;6.87;;;17.50;99.90;;;;;;5023215;28;20470;-82
2021/07/28 02:15:23;;;;;;;11.83;6.83;;;17.60;99.90;;;;;;5023549;28;20462;-82
2021/07/28 02:17:49;;;;;;;12.30;6.90;;;17.60;99.90;;;;;;5026627;28;20450;-83
2021/07/28 02:20:17;;;;;;;14.90;6.10;;;17.60;99.90;;;;;;5025463;28;20520;-81
2021/07/28 02:22:44;;;;;;;12.60;7.70;;;17.50;99.90;;;;;;5027842;28;20494;-81
2021/07/28 02:25:12;;;;;;;13.13;7.20;;;17.60;99.90;;;;;;5028243;28;20444;-82
2021/07/28 02:27:38;;;;;;;12.00;6.17;;;17.60;99.90;;;;;;5028354;28;20455;-82
2021/07/28 02:30:07;;;;;;;10.67;6.10;;;17.60;99.90;;;;;;5029153;28;20523;-82
2021/07/28 02:32:35;;;;;;;12.97;7.57;;;17.60;99.90;;;;;;5029055;28;20466;-82
2021/07/28 02:35:02;;;;;;;11.70;6.67;;;17.70;99.90;;;;;;5028935;28;20830;-82
2021/07/28 02:37:29;;;;;;;11.37;6.10;;;17.60;99.90;;;;;;5028478;28;20458;-82
2021/07/28 02:39:56;;;;;;;11.33;6.23;;;17.60;99.90;;;;;;5047148;28;20457;-83
2021/07/28 02:42:23;;;;;;;12.83;7.80;;;17.50;99.90;;;;;;5036017;28;20504;-82
2021/07/28 02:44:49;;;;;;;12.93;7.17;;;17.50;99.90;;;;;;5028689;28;20456;-82
2021/07/28 02:47:17;;;;;;;14.73;7.57;;;17.50;99.90;;;;;;5027746;28;20469;-82
2021/07/28 02:49:45;;;;;;;13.07;7.43;;;17.50;99.90;;;;;;5044429;28;21040;-82
2021/07/28 02:52:11;;;;;;;11.90;7.17;;;17.40;99.90;;;;;;5034227;28;20472;-81
2021/07/28 02:54:38;;;;;;;12.73;7.73;;;17.30;99.90;;;;;;5029409;28;20454;-81
2021/07/28 02:57:06;;;;;;;14.80;6.63;;;17.40;99.90;;;;;;5029195;28;20463;-81
2021/07/28 02:59:32;;;;;;;12.37;6.47;;;17.50;99.90;;;;;;5043367;28;20461;-82
2021/07/28 03:01:59;;;;;;;11.83;7.33;;;17.50;99.90;;;;;;5048819;28;20520;-83
2021/07/28 03:04:26;;;;;;;13.20;7.30;;;17.50;99.90;;;;;;5048058;28;20449;-82
2021/07/28 03:06:54;;;;;;;12.40;6.83;;;17.50;99.90;;;;;;5048131;28;20445;-82
2021/07/28 03:09:21;;;;;;;12.43;7.07;;;17.50;99.90;;;;;;5040305;28;20520;-82
2021/07/28 03:11:47;;;;;;;14.57;7.73;;;17.60;99.90;;;;;;5036304;28;20483;-82
2021/07/28 03:14:14;;;;;;;10.10;6.13;;;17.60;99.90;;;;;;5030481;28;20860;-81
2021/07/28 03:16:41;;;;;;;12.00;7.50;;;17.60;99.90;;;;;;5019940;28;20486;-81
2021/07/28 03:19:08;;;;;;;12.57;6.50;;;17.60;99.90;;;;;;5018024;28;20478;-82
2021/07/28 03:21:35;;;;;;;11.80;7.10;;;17.60;99.90;;;;;;5018289;28;20491;-81
2021/07/28 03:24:04;;;;;;;13.43;7.63;;;17.50;99.90;;;;;;5058538;23;20505;-81
2021/07/28 03:26:31;;;;;;;16.60;8.43;;;17.60;99.90;;;;;;5054218;28;20465;-83
2021/07/28 03:28:58;;;;;;;13.90;7.83;;;17.50;99.90;;;;;;5053523;28;20941;-81
2021/07/28 03:31:25;;;;;;;12.40;7.80;;;17.50;99.90;;;;;;5054466;28;20528;-81
2021/07/28 03:33:52;;;;;;;13.27;7.80;;;17.50;99.90;;;;;;5041343;28;20465;-80
2021/07/28 03:36:19;;;;;;;12.83;7.27;;;17.50;99.90;;;;;;5021729;28;20517;-83
2021/07/28 03:38:46;;;;;;;15.50;8.00;;;17.50;99.90;;;;;;5023625;28;20469;-86
2021/07/28 03:41:14;;;;;;;13.17;6.80;;;17.60;99.90;;;;;;5034102;28;20448;-85
2021/07/28 03:43:41;;;;;;;16.20;8.27;;;17.60;99.90;;;;;;5016420;28;20474;-86
2021/07/28 03:46:07;;;;;;;13.03;7.20;;;17.60;99.90;;;;;;5015550;28;20456;-86
2021/07/28 03:48:34;;;;;;;12.00;7.20;;;17.60;99.90;;;;;;5020826;28;20464;-85
2021/07/28 03:51:01;;;;;;;12.70;7.60;;;17.60;99.90;;;;;;5032201;28;20457;-85
2021/07/28 03:53:28;;;;;;;13.33;7.43;;;17.60;99.90;;;;;;5015766;28;20471;-85
2021/07/28 03:55:55;;;;;;;12.90;7.93;;;17.50;99.90;;;;;;5015640;28;20834;-85
2021/07/28 03:58:23;;;;;;;12.87;8.47;;;17.40;99.90;;;;;;5019507;28;20455;-85
2021/07/28 04:00:50;;;;;;;13.20;7.80;;;17.40;99.90;;;;;;5033736;28;20988;-85
2021/07/28 04:03:17;;;;;;;14.40;7.40;;;17.40;99.90;;;;;;5033784;28;20557;-85
2021/07/28 04:05:44;;;;;;;11.97;7.33;;;17.40;99.90;;;;;;5033576;28;20456;-85
2021/07/28 04:08:10;;;;;;;20.90;8.53;;;17.40;99.90;;;;;;5028046;28;20470;-84
2021/07/28 04:10:38;;;;;;;13.20;7.13;;;17.20;99.90;;;;;;5014754;28;20461;-86
2021/07/28 04:13:05;;;;;;;15.10;7.43;;;17.30;99.90;;;;;;5012988;28;21059;-86
2021/07/28 04:15:33;;;;;;;10.97;7.13;;;17.30;99.90;;;;;;5013486;28;20452;-85
2021/07/28 04:18:00;;;;;;;11.87;7.27;;;17.30;99.90;;;;;;5015114;28;20562;-86
2021/07/28 04:20:27;;;;;;;13.87;7.23;;;17.30;99.90;;;;;;5032245;28;20459;-87
2021/07/28 04:22:54;;;;;;;13.37;7.70;;;17.30;99.90;;;;;;5031864;28;20496;-87
2021/07/28 04:25:21;;;;;;;13.03;8.27;;;17.30;99.90;;;;;;5032706;28;20446;-88
2021/07/28 04:27:48;;;;;;;12.47;8.17;;;17.40;99.90;;;;;;5032645;28;20468;-87
2021/07/28 04:30:15;;;;;;;12.70;8.27;;;17.40;99.90;;;;;;5030940;28;20985;-88
2021/07/28 04:32:43;;;;;;;14.73;8.00;;;17.40;99.90;;;;;;5032454;28;20475;-87
2021/07/28 04:35:11;;;;;;;16.80;8.03;;;17.50;99.90;;;;;;5031943;28;20454;-87
2021/07/28 04:37:37;;;;;;;14.63;8.33;;;17.50;99.90;;;;;;5032336;28;20457;-88
2021/07/28 04:40:05;;;;;;;15.63;8.83;;;17.50;99.90;;;;;;5013000;28;20464;-88
2021/07/28 04:42:32;;;;;;;14.60;8.40;;;17.60;99.90;;;;;;5011975;28;20490;-87
2021/07/28 04:44:59;;;;;;;12.80;7.73;;;17.60;99.90;;;;;;5022579;28;20460;-87
2021/07/28 04:47:26;;;;;;;16.23;8.07;;;17.70;99.90;;;;;;5013507;28;20455;-88
2021/07/28 04:49:54;;;;;;;15.60;7.60;;;17.70;99.90;;;;;;5018160;28;21055;-88
2021/07/28 04:52:24;;;;;;;16.60;9.20;;;17.70;99.90;;;;;;5011829;28;20957;-88
2021/07/28 04:54:52;;;;;;;13.70;8.67;;;17.80;99.90;;;;;;5012614;28;20464;-88
2021/07/28 04:57:19;;;;;;;15.40;8.50;;;17.80;99.90;;;;;;5012253;28;20455;-86
2021/07/28 04:59:46;;;;;;;15.77;8.57;;;17.90;99.90;;;;;;5025970;28;20987;-87
2021/07/28 05:02:13;;;;;;;12.27;8.17;;;17.90;99.90;;;;;;5032226;28;20503;-87
2021/07/28 05:04:40;;;;;;;13.57;8.80;;;18.00;99.90;;;;;;5031979;28;20461;-88
2021/07/28 05:07:08;;;;;;;13.97;8.13;;;18.00;99.90;;;;;;5027237;28;20459;-88
2021/07/28 05:09:35;;;;;;;14.73;9.60;;;18.00;99.90;;;;;;5011994;28;20878;-90
2021/07/28 05:12:01;;;;;;;14.20;7.10;;;17.90;99.90;;;;;;5012001;28;20435;-88
2021/07/28 05:14:28;;;;;;;14.47;8.37;;;17.90;99.90;;;;;;5012265;28;20476;-88
2021/07/28 05:16:55;;;;;;;16.23;9.60;;;18.00;99.90;;;;;;5011776;28;20543;-84
2021/07/28 05:19:22;;;;;;;14.03;9.20;;;18.10;99.90;;;;;;5022134;28;20969;-88
2021/07/28 05:21:49;;;;;;;15.43;8.67;;;18.10;99.90;;;;;;5032333;28;20550;-87
2021/07/28 05:24:17;;;;;;;12.30;7.63;;;18.10;99.90;;;;;;5031559;28;20490;-87
2021/07/28 05:26:44;;;;;;;15.77;7.80;;;18.10;99.90;;;;;;5032067;28;21003;-88
2021/07/28 05:29:11;;;;;;;14.43;8.03;;;18.00;99.90;;;;;;5021692;28;20457;-85
2021/07/28 05:31:38;;;;;;;14.80;7.33;;;18.10;99.90;;;;;;5012066;28;20461;-84
2021/07/28 05:34:06;;;;;;;13.00;7.37;;;18.00;99.90;;;;;;5012234;28;20852;-85
2021/07/28 05:36:33;;;;;;;15.57;7.97;;;18.00;99.90;;;;;;5012549;28;20868;-88
2021/07/28 05:38:59;;;;;;;14.77;8.03;;;18.10;99.90;;;;;;5019013;28;20443;-88
2021/07/28 05:41:32;;;;;;;10.73;7.13;;;18.20;99.90;;;;;;5031705;28;20449;-87
2021/07/28 05:44:07;;;;;;;14.20;7.37;;;18.10;99.90;;;;;;5023994;28;20508;-87
2021/07/28 05:46:34;;;;;;;17.07;7.03;;;18.20;99.90;;;;;;5012501;28;20443;-87
2021/07/28 05:49:01;;;;;;;13.90;8.93;;;18.20;99.90;;;;;;5018895;28;20479;-86
2021/07/28 05:51:28;;;;;;;13.70;6.80;;;18.30;99.90;;;;;;5031315;28;20475;-88
2021/07/28 05:53:55;;;;;;;13.37;7.80;;;18.50;99.90;;;;;;5032559;28;20480;-88
2021/07/28 05:56:23;;;;;;;12.57;7.53;;;18.50;99.90;;;;;;5036285;28;20477;-88
2021/07/28 05:58:52;;;;;;;13.97;7.20;;;18.50;99.90;;;;;;5054119;28;20460;-89
2021/07/28 06:01:20;;;;;;;13.30;7.63;;;18.60;99.90;;;;;;5049582;28;20479;-89
2021/07/28 06:03:56;;;;;;;13.30;8.03;;;18.60;99.90;;;;;;5029835;28;20496;-89
2021/07/28 06:06:26;;;;;;;16.20;7.20;;;18.70;99.90;;;;;;5023070;28;20514;-89
2021/07/28 06:12:16;;;;;;;14.70;7.47;;;18.80;99.90;;;;;;5021173;28;21018;-88
2021/07/28 06:14:47;;;;;;;11.93;7.03;;;18.90;99.90;;;;;;4993642;28;20467;-89
2021/07/28 06:17:17;;;;;;;13.07;6.80;;;18.90;99.90;;;;;;5010746;28;20484;-88
2021/07/28 06:19:58;;;;;;;12.43;7.10;;;19.00;99.90;;;;;;5023869;28;20528;-87
2021/07/28 06:22:26;;;;;;;14.67;7.20;;;19.10;99.90;;;;;;5023046;28;20571;-87
2021/07/28 06:24:54;;;;;;;11.43;6.97;;;19.20;99.90;;;;;;5025977;28;20566;-87
2021/07/28 06:27:21;;;;;;;14.40;6.53;;;19.30;99.90;;;;;;5026743;28;20460;-87
2021/07/28 06:30:09;;;;;;;15.50;6.67;;;19.30;99.90;;;;;;5018016;28;20481;-87
2021/07/28 06:32:55;;;;;;;11.40;5.93;;;19.50;99.90;;;;;;5027524;28;20483;-87
2021/07/28 06:35:25;;;;;;;13.97;6.40;;;19.50;99.90;;;;;;5035707;28;20532;-87
2021/07/28 06:37:52;;;;;;;13.00;6.20;;;19.60;99.90;;;;;;5022272;28;20453;-87
2021/07/28 06:40:23;;;;;;;11.90;6.10;;;19.70;99.90;;;;;;5024333;28;20969;-88
2021/07/28 06:43:00;;;;;;;12.50;6.10;;;19.60;99.90;;;;;;5035558;28;20497;-87
2021/07/28 06:48:47;;;;;;;11.53;6.47;;;19.60;99.90;;;;;;4995566;28;20454;-86
2021/07/28 06:51:27;;;;;;;13.27;7.30;;;19.60;99.90;;;;;;5015726;28;20895;-86
2021/07/28 06:53:54;;;;;;;11.80;6.00;;;19.50;99.90;;;;;;5019957;28;20499;-85
2021/07/28 06:56:23;;;;;;;12.27;5.87;;;19.50;99.90;;;;;;5033987;28;20540;-87
2021/07/28 06:59:01;;;;;;;11.87;6.33;;;19.60;99.90;;;;;;5027925;28;20954;-87
2021/07/28 07:01:59;;;;;;;10.27;5.80;;;19.60;99.90;;;;;;5034688;28;20877;-87
2021/07/28 07:05:03;;;;;;;9.93;5.83;;;19.80;99.90;;;;;;5020460;28;20938;-87
2021/07/28 07:07:40;;;;;;;11.37;5.90;;;19.90;99.90;;;;;;5017049;28;20908;-86
2021/07/28 07:10:36;;;;;;;11.07;6.27;;;19.90;99.90;;;;;;5026570;28;20450;-86
2021/07/28 07:16:40;;;;;;;11.40;5.50;;;19.80;99.90;;;;;;4993599;28;20969;-86
2021/07/28 07:19:52;;;;;;;10.83;5.30;;;19.80;99.90;;;;;;4994314;28;20842;-85
2021/07/28 07:31:34;;;;;;;10.87;5.00;;;19.50;99.90;;;;;;5011694;28;20427;-85
2021/07/28 07:34:14;;;;;;;10.73;5.23;;;19.40;99.90;;;;;;5003978;28;20499;-87
2021/07/28 07:36:55;;;;;;;11.63;6.30;;;19.40;99.90;;;;;;4993974;28;20465;-87
2021/07/28 07:39:22;;;;;;;12.37;6.30;;;19.40;99.90;;;;;;4994642;28;20455;-87
2021/07/28 07:41:55;;;;;;;13.00;6.50;;;19.50;99.90;;;;;;4995607;28;20442;-86
2021/07/28 07:44:24;;;;;;;10.07;6.20;;;19.60;99.90;;;;;;4993871;28;20482;-87
2021/07/28 07:46:51;;;;;;;12.27;6.13;;;19.60;99.90;;;;;;4991063;28;20458;-84
2021/07/28 07:49:20;;;;;;;11.33;6.53;;;19.50;99.90;;;;;;4985662;28;20539;-85
2021/07/28 07:52:05;;;;;;;12.40;6.30;;;19.60;99.90;;;;;;4975582;28;20450;-85
2021/07/28 07:54:42;;;;;;;12.20;6.20;;;19.60;99.90;;;;;;4992280;28;20999;-85
2021/07/28 07:57:27;;;;;;;13.30;6.10;;;19.80;99.90;;;;;;4994768;28;20869;-85
2021/07/28 07:59:54;;;;;;;12.93;6.40;;;19.90;99.90;;;;;;4996220;28;20438;-82
2021/07/28 08:02:39;;;;;;;10.50;6.03;;;19.90;99.90;;;;;;4997834;28;20442;-85
2021/07/28 08:09:11;;;;;;;9.53;5.00;;;20.10;99.90;;;;;;4894928;29;20468;-85
2021/07/28 08:12:17;;;;;;;10.60;5.87;;;20.30;99.90;;;;;;4912955;29;20524;-85
2021/07/28 08:15:09;;;;;;;14.07;5.20;;;20.40;99.90;;;;;;4906182;29;20470;-87
2021/07/28 08:17:37;;;;;;;11.27;5.33;;;20.40;99.90;;;;;;4933006;29;20423;-86
2021/07/28 08:20:10;;;;;;;10.80;5.87;;;20.40;99.90;;;;;;4983886;28;20458;-90
2021/07/28 08:22:44;;;;;;;14.13;6.10;;;20.30;99.90;;;;;;5017040;28;20451;-86
2021/07/28 08:25:20;;;;;;;14.10;5.90;;;20.30;99.90;;;;;;4986770;28;20484;-87
2021/07/28 08:27:50;;;;;;;14.30;5.97;;;20.50;99.90;;;;;;4993603;28;20551;-88
2021/07/28 08:30:28;;;;;;;12.10;6.07;;;20.40;99.90;;;;;;5000671;28;20446;-87
2021/07/28 08:32:55;;;;;;;16.93;6.83;;;20.30;99.90;;;;;;5008499;28;20442;-84
2021/07/28 08:35:31;;;;;;;11.90;7.30;;;20.20;99.90;;;;;;5016350;28;20442;-86
2021/07/28 08:37:59;;;;;;;12.57;7.80;;;19.90;99.90;;;;;;5017261;28;20462;-85
2021/07/28 08:40:27;;;;;;;11.53;6.53;;;19.80;99.90;;;;;;5016577;28;20507;-85
2021/07/28 08:42:58;;;;;;;13.03;6.10;;;19.70;99.90;;;;;;5007746;28;20541;-84
2021/07/28 08:45:26;;;;;;;15.83;7.33;;;19.50;99.90;;;;;;5001065;28;20533;-86
2021/07/28 08:47:54;;;;;;;12.50;7.47;;;19.40;99.90;;;;;;4997718;28;20983;-85
2021/07/28 08:50:21;;;;;;;12.70;7.77;;;19.20;99.90;;;;;;4997088;28;20447;-85
2021/07/28 08:52:50;;;;;;;14.13;7.50;;;19.20;99.90;;;;;;4985458;28;20481;-84
2021/07/28 08:55:20;;;;;;;12.37;7.73;;;19.00;99.90;;;;;;4996750;28;20513;-86
2021/07/28 08:57:46;;;;;;;12.00;6.80;;;19.20;99.90;;;;;;5001506;28;20528;-84
2021/07/28 09:00:14;;;;;;;11.83;6.83;;;19.20;99.90;;;;;;5000901;28;20466;-84
2021/07/28 09:02:42;;;;;;;10.43;6.20;;;19.20;99.90;;;;;;4995086;28;20565;-87
2021/07/28 09:05:12;;;;;;;11.00;6.70;;;19.20;99.90;;;;;;4995364;28;20553;-86
2021/07/28 09:07:40;;;;;;;14.80;6.93;;;19.20;99.90;;;;;;5000921;28;20455;-86
2021/07/28 09:10:11;;;;;;;11.80;6.53;;;19.40;99.90;;;;;;5006375;28;20496;-85
2021/07/28 09:12:41;;;;;;;11.73;5.60;;;19.50;99.90;;;;;;5010849;28;20487;-86
2021/07/28 09:15:15;;;;;;;12.70;5.80;;;19.50;99.90;;;;;;4999358;28;20957;-87
2021/07/28 09:17:48;;;;;;;8.70;5.00;;;19.60;99.90;;;;;;5006962;28;20455;-85
2021/07/28 09:20:24;;;;;;;13.30;6.40;;;20.00;99.90;;;;;;4993446;28;20601;-87
2021/07/28 09:25:32;;;;;;;13.10;5.13;;;20.90;99.90;;;;;;5029590;28;20536;-82
2021/07/28 09:27:59;;;;;;;10.43;5.37;;;21.20;99.90;;;;;;5030374;28;20515;-83
2021/07/28 09:30:34;;;;;;;9.17;5.17;;;21.50;99.90;;;;;;5039055;28;20448;-83
2021/07/28 09:33:04;;;;;;;10.77;5.40;;;21.70;99.90;;;;;;5038759;28;21016;-84
2021/07/28 09:36:09;;;;;;;13.77;5.37;;;21.90;99.90;;;;;;5037775;28;20471;-84
2021/07/28 09:38:37;;;;;;;13.50;5.63;;;22.00;99.90;;;;;;5038406;28;20444;-83
2021/07/28 09:41:21;;;;;;;13.37;5.70;;;22.30;99.90;;;;;;5038596;28;20513;-84
2021/07/28 09:43:54;;;;;;;10.90;5.00;;;22.30;99.90;;;;;;5037591;28;20524;-83
2021/07/28 09:46:32;;;;;;;11.57;5.43;;;22.00;99.90;;;;;;5018639;28;20452;-84
2021/07/28 09:49:03;;;;;;;11.03;5.13;;;22.20;99.90;;;;;;5018178;28;20920;-84
2021/07/28 09:51:33;;;;;;;11.70;5.13;;;22.40;99.90;;;;;;5019557;28;20513;-83
2021/07/28 09:54:02;;;;;;;14.93;6.83;;;22.60;99.90;;;;;;5039049;28;20477;-85
2021/07/28 09:56:44;;;;;;;14.10;5.30;;;22.90;99.90;;;;;;5037664;28;20589;-86
2021/07/28 09:59:13;;;;;;;15.40;4.60;;;22.70;99.90;;;;;;5039137;28;20445;-85
2021/07/28 10:01:40;;;;;;;18.17;4.47;;;22.70;99.90;;;;;;5038842;28;20471;-85
2021/07/28 10:04:09;;;;;;;11.60;4.03;;;22.70;99.90;;;;;;5038089;28;20494;-82
2021/07/28 10:06:39;;;;;;;13.80;4.60;;;22.60;99.90;;;;;;5037913;28;20459;-85
2021/07/28 10:09:10;;;;;;;14.13;4.63;;;22.90;99.90;;;;;;5029717;28;20528;-84
2021/07/28 10:11:40;;;;;;;16.37;4.50;;;23.60;99.90;;;;;;5037907;28;20457;-84
2021/07/28 10:14:09;;;;;;;15.00;4.30;;;23.80;99.90;;;;;;5038359;28;20469;-84
2021/07/28 10:16:36;;;;;;;14.47;4.57;;;24.40;99.90;;;;;;5037850;28;20539;-84
2021/07/28 10:19:04;;;;;;;16.00;3.93;;;24.60;99.90;;;;;;5037593;28;20467;-85
2021/07/28 10:21:36;;;;;;;18.10;4.13;;;24.70;99.90;;;;;;5037706;28;20453;-85
2021/07/28 10:24:04;;;;;;;14.23;4.27;;;24.70;99.90;;;;;;5039401;28;20873;-84
2021/07/28 10:26:35;;;;;;;14.60;4.53;;;24.90;99.90;;;;;;5037695;28;20453;-83
2021/07/28 10:29:02;;;;;;;13.30;4.20;;;25.10;99.90;;;;;;5037339;28;20459;-85
2021/07/28 10:31:44;;;;;;;16.97;3.90;;;25.30;99.90;;;;;;5036559;28;20893;-83
2021/07/28 10:34:23;;;;;;;15.60;3.57;;;25.20;99.90;;;;;;5036572;28;20475;-85
2021/07/28 10:36:57;;;;;;;16.93;3.97;;;24.70;99.90;;;;;;5035079;28;20455;-83
2021/07/28 10:39:47;;;;;;;15.27;3.70;;;24.20;99.90;;;;;;5035641;28;20436;-82
2021/07/28 10:42:18;;;;;;;18.03;3.50;;;23.80;99.90;;;;;;5037051;28;20445;-83
2021/07/28 10:45:05;;;;;;;15.70;4.20;;;23.50;99.90;;;;;;5039234;28;20580;-86
2021/07/28 10:47:37;;;;;;;14.20;3.47;;;23.80;99.90;;;;;;5040611;28;20453;-86
2021/07/28 10:50:05;;;;;;;18.83;3.33;;;24.40;99.90;;;;;;5040585;28;20448;-85
2021/07/28 10:52:39;;;;;;;18.00;4.07;;;24.70;99.90;;;;;;5042519;28;20459;-85
2021/07/28 10:55:24;;;;;;;21.97;3.63;;;25.10;99.90;;;;;;5039709;28;20476;-85
2021/07/28 10:58:23;;;;;;;19.80;3.07;;;25.20;99.90;;;;;;5040531;28;20547;-84
2021/07/28 11:00:55;;;;;;;20.67;3.20;;;25.30;99.90;;;;;;5041114;28;20463;-85
2021/07/28 11:03:30;;;;;;;20.07;3.00;;;25.50;99.90;;;;;;5039154;28;20465;-87
2021/07/28 11:06:22;;;;;;;23.57;2.83;;;25.00;99.90;;;;;;5036149;28;20460;-85
2021/07/28 11:08:50;;;;;;;21.20;2.43;;;25.20;99.90;;;;;;5039263;28;20456;-85
2021/07/28 11:11:27;;;;;;;24.90;2.63;;;25.50;99.90;;;;;;5023883;28;21018;-85
2021/07/28 11:13:54;;;;;;;23.27;3.13;;;25.70;99.90;;;;;;5016744;28;20480;-85
2021/07/28 11:16:22;;;;;;;23.20;3.00;;;25.50;99.90;;;;;;5034384;28;20452;-85
2021/07/28 11:18:51;;;;;;;29.10;3.00;;;24.70;99.90;;;;;;5035280;28;20547;-85
2021/07/28 11:21:20;;;;;;;30.77;3.27;;;24.20;99.90;;;;;;5035359;28;20453;-85
2021/07/28 11:23:53;;;;;;;30.30;3.30;;;24.00;99.90;;;;;;5035644;28;21085;-85
2021/07/28 11:26:25;;;;;;;23.90;3.10;;;23.50;99.90;;;;;;5035133;28;20479;-85
2021/07/28 11:28:54;;;;;;;25.43;3.30;;;23.30;99.90;;;;;;5032733;28;20453;-86
2021/07/28 11:31:30;;;;;;;23.07;3.20;;;23.60;99.90;;;;;;5033805;28;20455;-85
2021/07/28 11:34:19;;;;;;;33.90;3.30;;;24.50;99.90;;;;;;5034686;28;21033;-84
2021/07/28 11:36:56;;;;;;;35.70;3.90;;;24.70;99.90;;;;;;5031619;28;20469;-84
2021/07/28 11:39:25;;;;;;;25.47;2.50;;;24.60;99.90;;;;;;5036467;28;20499;-84
2021/07/28 11:42:01;;;;;;;26.77;3.37;;;24.20;99.90;;;;;;5034817;28;21141;-85
2021/07/28 11:44:28;;;;;;;22.77;2.50;;;24.50;99.90;;;;;;5033780;28;20488;-85
2021/07/28 11:46:56;;;;;;;30.63;3.10;;;25.10;99.90;;;;;;5033157;28;20830;-85
2021/07/28 11:49:27;;;;;;;20.80;3.00;;;25.40;99.90;;;;;;5033200;28;20460;-85
2021/07/28 11:52:03;;;;;;;37.43;3.37;;;25.60;99.90;;;;;;5034346;28;20452;-85
2021/07/28 11:54:33;;;;;;;27.73;2.70;;;25.00;99.90;;;;;;5034112;28;20472;-85
2021/07/28 11:57:00;;;;;;;32.90;3.10;;;24.70;99.90;;;;;;5034209;28;20548;-84
2021/07/28 11:59:31;;;;;;;35.77;2.73;;;25.20;99.90;;;;;;5033261;28;20474;-85
2021/07/28 12:02:01;;;;;;;33.00;3.13;;;25.50;99.90;;;;;;5033619;28;20459;-85
2021/07/28 12:04:30;;;;;;;37.40;5.23;;;25.00;99.90;;;;;;5033272;28;20488;-85
2021/07/28 12:07:00;;;;;;;43.27;3.77;;;25.00;99.90;;;;;;5034354;28;20449;-86
2021/07/28 12:09:28;;;;;;;43.37;3.63;;;25.00;99.90;;;;;;5050626;28;20441;-86
2021/07/28 12:11:58;;;;;;;44.90;3.50;;;25.80;99.90;;;;;;5050130;28;20517;-84
2021/07/28 12:14:34;;;;;;;45.30;3.17;;;26.20;99.90;;;;;;5041408;28;20469;-86
2021/07/28 12:17:04;;;;;;;48.80;3.90;;;26.30;99.90;;;;;;5035676;28;20520;-85
2021/07/28 12:19:33;;;;;;;36.43;2.93;;;26.40;99.90;;;;;;5039079;28;20535;-86
2021/07/28 12:22:03;;;;;;;46.67;3.40;;;27.20;99.90;;;;;;5034220;28;20459;-85
2021/07/28 12:24:42;;;;;;;51.77;9.80;;;27.60;99.90;;;;;;5034681;28;20552;-86
2021/07/28 12:27:38;;;;;;;62.97;25.10;;;28.10;99.90;;;;;;5035528;28;21166;-85
2021/07/28 12:30:09;;;;;;;62.97;26.00;;;27.90;99.90;;;;;;5033458;28;20475;-85
2021/07/28 12:32:38;;;;;;;67.40;27.63;;;28.10;99.90;;;;;;5035140;28;20443;-85
2021/07/28 12:35:07;;;;;;;94.30;79.97;;;28.10;99.90;;;;;;5033337;28;20465;-85
2021/07/28 12:37:34;;;;;;;119.13;107.90;;;28.50;99.90;;;;;;5033826;28;20449;-84
2021/07/28 12:40:01;;;;;;;208.30;193.37;;;28.30;99.90;;;;;;5035187;28;20452;-85
2021/07/28 12:42:29;;;;;;;132.87;120.60;;;28.60;99.90;;;;;;5033877;28;20547;-85
2021/07/28 12:44:57;;;;;;;210.77;195.60;;;28.80;99.90;;;;;;5034217;28;20515;-85
2021/07/28 12:47:24;;;;;;;234.77;218.17;;;28.90;99.90;;;;;;5033449;28;20449;-86
2021/07/28 12:49:51;;;;;;;70.27;37.57;;;28.80;99.90;;;;;;5033708;28;20943;-86
2021/07/28 12:52:18;;;;;;;85.57;68.73;;;29.10;99.90;;;;;;5033147;28;20457;-85
2021/07/28 12:54:45;;;;;;;226.27;210.60;;;28.90;99.90;;;;;;5032727;28;20472;-85
2021/07/28 12:57:12;;;;;;;181.47;167.50;;;28.70;99.90;;;;;;5033114;28;20992;-86
2021/07/28 12:59:38;;;;;;;184.33;169.93;;;28.20;99.90;;;;;;5031937;28;20857;-85
2021/07/28 13:02:07;;;;;;;83.40;59.37;;;27.90;99.90;;;;;;5030863;28;20449;-86
2021/07/28 13:04:34;;;;;;;346.60;323.30;;;27.90;99.90;;;;;;5030654;28;20499;-85
2021/07/28 13:07:09;;;;;;;307.03;287.50;;;28.00;99.90;;;;;;5031298;28;20463;-85
2021/07/28 13:09:36;;;;;;;141.73;129.53;;;28.00;99.90;;;;;;5030465;28;20950;-86
2021/07/28 13:12:03;;;;;;;146.17;133.97;;;28.30;99.90;;;;;;5032647;28;20499;-85
2021/07/28 13:14:29;;;;;;;89.20;69.30;;;28.40;99.90;;;;;;5032574;28;20511;-86
2021/07/28 13:16:57;;;;;;;262.70;245.97;;;28.30;99.90;;;;;;5032988;28;20534;-86
2021/07/28 13:19:25;;;;;;;100.50;89.80;;;28.10;99.90;;;;;;5022850;28;20530;-85
2021/07/28 13:21:52;;;;;;;152.60;139.77;;;27.70;99.90;;;;;;5011940;28;20833;-86